KBHB 270456Z AUTO 07009KT 10SM CLR 11/06 A3013 RMK AO2 SLP208 T01110061 $